createdAt,value
2019-06-08T00:01:14.395Z,32.27
2019-06-08T00:03:46.114Z,30.27
2019-06-08T00:06:18.741Z,31.70
2019-06-08T00:08:50.746Z,27.50
2019-06-08T00:11:23.276Z,26.90
2019-06-08T00:13:55.513Z,26.87
2019-06-08T00:16:27.077Z,28.03
2019-06-08T00:18:58.635Z,35.57
2019-06-08T00:21:30.764Z,30.73
2019-06-08T00:24:02.396Z,48.60
2019-06-08T00:26:33.572Z,44.47
2019-06-08T00:29:05.077Z,43.37
2019-06-08T00:31:36.228Z,41.97
2019-06-08T00:34:07.211Z,31.17
2019-06-08T00:36:39.843Z,29.93
2019-06-08T00:39:11.811Z,29.40
2019-06-08T00:41:42.830Z,30.23
2019-06-08T00:44:15.145Z,35.00
2019-06-08T00:46:46.807Z,31.87
2019-06-08T00:49:18.460Z,27.90
2019-06-08T00:51:49.562Z,32.73
2019-06-08T00:54:21.552Z,28.63
2019-06-08T00:56:52.700Z,26.17
2019-06-08T00:59:24.283Z,27.53
2019-06-08T01:01:55.960Z,23.03
2019-06-08T01:04:27.240Z,20.07
2019-06-08T01:06:58.268Z,19.50
2019-06-08T01:09:29.028Z,19.07
2019-06-08T01:11:59.777Z,21.40
2019-06-08T01:14:30.544Z,38.87
2019-06-08T01:17:01.277Z,36.60
2019-06-08T01:19:32.354Z,24.87
2019-06-08T01:22:03.213Z,32.30
2019-06-08T01:24:33.956Z,24.03
2019-06-08T01:27:04.830Z,23.07
2019-06-08T01:29:35.588Z,21.17
2019-06-08T01:32:06.294Z,25.67
2019-06-08T01:34:37.083Z,29.13
2019-06-08T01:37:07.818Z,27.50
2019-06-08T01:39:38.677Z,21.53
2019-06-08T01:42:09.407Z,22.70
2019-06-08T01:44:40.206Z,19.83
2019-06-08T01:47:10.930Z,18.10
2019-06-08T01:49:41.808Z,14.77
2019-06-08T01:52:12.564Z,22.13
2019-06-08T01:54:43.326Z,17.10
2019-06-08T01:57:14.057Z,19.00
2019-06-08T01:59:44.834Z,16.17
2019-06-08T02:02:15.558Z,15.20
2019-06-08T02:04:46.324Z,14.10
2019-06-08T02:07:17.130Z,13.90
2019-06-08T02:09:47.897Z,13.77
2019-06-08T02:12:18.719Z,15.77
2019-06-08T02:14:49.497Z,29.50
2019-06-08T02:17:20.235Z,22.10
2019-06-08T02:19:51.114Z,23.13
2019-06-08T02:22:21.825Z,19.57
2019-06-08T02:24:52.630Z,17.30
2019-06-08T02:27:23.401Z,23.10
2019-06-08T02:29:54.221Z,14.30
2019-06-08T02:32:25.032Z,13.80
2019-06-08T02:34:55.806Z,15.47
2019-06-08T02:37:28.545Z,13.23
2019-06-08T02:40:00.103Z,17.10
2019-06-08T02:42:33.099Z,17.77
2019-06-08T02:45:04.157Z,12.23
2019-06-08T02:47:36.781Z,12.57
2019-06-08T02:50:07.929Z,18.90
2019-06-08T02:52:41.017Z,22.50
2019-06-08T02:55:12.354Z,18.40
2019-06-08T02:57:44.683Z,15.47
2019-06-08T03:00:15.676Z,20.43
2019-06-08T03:02:48.184Z,15.73
2019-06-08T03:05:19.077Z,23.40
2019-06-08T03:07:52.168Z,29.93
2019-06-08T03:10:23.041Z,30.13
2019-06-08T03:12:55.678Z,21.63
2019-06-08T03:15:32.442Z,26.53
2019-06-08T03:18:03.547Z,17.70
2019-06-08T03:20:35.627Z,19.27
2019-06-08T03:23:06.619Z,14.27
2019-06-08T03:25:47.221Z,15.20
2019-06-08T03:28:09.814Z,13.63
2019-06-08T03:30:47.417Z,17.27
2019-06-08T03:33:13.942Z,14.77
2019-06-08T03:35:55.994Z,18.33
2019-06-08T03:38:18.162Z,14.33
2019-06-08T03:40:49.046Z,21.63
2019-06-08T03:43:19.770Z,17.13
2019-06-08T03:45:50.555Z,18.23
2019-06-08T03:48:22.312Z,18.57
2019-06-08T03:50:53.063Z,23.57
2019-06-08T03:53:24.004Z,21.23
2019-06-08T03:55:54.807Z,17.17
2019-06-08T03:58:25.541Z,18.90
2019-06-08T04:00:56.458Z,20.17
2019-06-08T04:03:27.274Z,22.27
2019-06-08T04:05:58.061Z,17.43
2019-06-08T04:08:28.806Z,17.83
2019-06-08T04:10:59.636Z,22.03
2019-06-08T04:13:30.365Z,18.37
2019-06-08T04:16:00.410Z,18.63
2019-06-08T04:18:31.177Z,25.23
2019-06-08T04:21:02.262Z,23.37
2019-06-08T04:23:33.100Z,21.77
2019-06-08T04:26:03.897Z,21.57
2019-06-08T04:28:34.706Z,17.17
2019-06-08T04:31:05.508Z,18.00
2019-06-08T04:33:37.652Z,16.60
2019-06-08T04:36:08.743Z,20.47
2019-06-08T04:38:41.211Z,18.07
2019-06-08T04:41:11.909Z,15.37
2019-06-08T04:43:43.060Z,16.43
2019-06-08T04:46:15.159Z,17.70
2019-06-08T04:48:49.279Z,14.90
2019-06-08T04:51:18.299Z,14.13
2019-06-08T04:53:49.690Z,19.87
2019-06-08T04:56:21.876Z,17.80
2019-06-08T04:58:52.614Z,15.83
2019-06-08T05:01:23.413Z,15.60
2019-06-08T05:03:54.173Z,17.27
2019-06-08T05:06:25.071Z,14.83
2019-06-08T05:08:55.807Z,14.53
2019-06-08T05:11:26.598Z,14.60
2019-06-08T05:13:57.393Z,14.67
2019-06-08T05:16:28.217Z,15.10
2019-06-08T05:18:58.969Z,13.90
2019-06-08T05:21:29.804Z,12.90
2019-06-08T05:24:00.587Z,17.63
2019-06-08T05:26:31.366Z,18.00
2019-06-08T05:29:02.163Z,17.23
2019-06-08T05:31:32.936Z,18.33
2019-06-08T05:34:03.711Z,15.97
2019-06-08T05:36:34.593Z,16.37
2019-06-08T05:39:06.870Z,22.50
2019-06-08T05:41:37.821Z,18.77
2019-06-08T05:44:08.583Z,22.23
2019-06-08T05:46:39.647Z,20.23
2019-06-08T05:49:10.502Z,21.30
2019-06-08T05:51:41.846Z,24.60
2019-06-08T05:54:12.574Z,22.90
2019-06-08T05:56:43.867Z,22.43
2019-06-08T05:59:14.859Z,24.40
2019-06-08T06:01:46.728Z,23.40
2019-06-08T06:04:18.691Z,21.20
2019-06-08T06:06:50.894Z,22.37
2019-06-08T06:09:22.162Z,21.03
2019-06-08T06:11:53.353Z,20.63
2019-06-08T06:14:24.502Z,19.37
2019-06-08T06:16:55.900Z,21.37
2019-06-08T06:19:28.509Z,20.77
2019-06-08T06:22:00.470Z,19.10
2019-06-08T06:24:32.501Z,18.47
2019-06-08T06:27:04.467Z,18.83
2019-06-08T06:29:35.475Z,18.37
2019-06-08T06:32:06.651Z,20.33
2019-06-08T06:34:45.820Z,18.20
2019-06-08T06:37:19.787Z,20.57
2019-06-08T06:39:52.093Z,19.93
2019-06-08T06:42:25.039Z,20.27
2019-06-08T06:44:55.603Z,20.07
2019-06-08T06:47:26.447Z,21.70
2019-06-08T06:49:57.506Z,21.07
2019-06-08T06:52:29.308Z,20.50
2019-06-08T06:55:00.506Z,20.87
2019-06-08T06:57:31.368Z,20.57
2019-06-08T07:00:02.205Z,20.43
2019-06-08T07:02:34.500Z,21.43
2019-06-08T07:05:05.956Z,21.57
2019-06-08T07:07:36.950Z,21.07
2019-06-08T07:10:08.235Z,20.60
2019-06-08T07:12:39.228Z,21.10
2019-06-08T07:15:10.289Z,21.10
2019-06-08T07:17:41.197Z,22.30
2019-06-08T07:20:12.060Z,19.20
2019-06-08T07:22:43.013Z,21.40
2019-06-08T07:25:13.957Z,20.20
2019-06-08T07:27:44.833Z,20.33
2019-06-08T07:30:16.049Z,19.50
2019-06-08T07:32:48.138Z,18.67
2019-06-08T07:35:19.964Z,16.10
2019-06-08T07:37:53.684Z,15.23
2019-06-08T07:40:24.694Z,14.00
2019-06-08T07:42:56.709Z,14.10
2019-06-08T07:45:28.326Z,13.77
2019-06-08T07:48:04.059Z,12.73
2019-06-08T07:50:36.624Z,12.50
2019-06-08T07:53:07.695Z,12.33
2019-06-08T07:55:38.462Z,11.93
2019-06-08T07:58:09.586Z,11.87
2019-06-08T08:00:41.725Z,13.10
2019-06-08T08:03:14.137Z,13.17
2019-06-08T08:05:46.163Z,12.93
2019-06-08T08:08:18.923Z,13.03
2019-06-08T08:10:50.984Z,13.73
2019-06-08T08:13:24.322Z,14.20
2019-06-08T08:15:58.583Z,14.97
2019-06-08T08:18:29.765Z,14.60
2019-06-08T08:21:09.017Z,14.03
2019-06-08T08:23:38.183Z,14.57
2019-06-08T08:26:09.460Z,13.33
2019-06-08T08:28:41.197Z,12.70
2019-06-08T08:31:15.269Z,13.13
2019-06-08T08:33:46.034Z,11.77
2019-06-08T08:36:21.105Z,12.73
2019-06-08T08:38:51.853Z,12.47
2019-06-08T08:41:23.297Z,13.33
2019-06-08T08:43:58.391Z,12.13
2019-06-08T08:46:28.590Z,12.40
2019-06-08T08:49:09.082Z,11.33
2019-06-08T08:51:33.390Z,11.73
2019-06-08T08:54:05.532Z,11.03
2019-06-08T08:56:38.530Z,12.00
2019-06-08T08:59:10.827Z,11.07
2019-06-08T09:01:42.713Z,11.57
2019-06-08T09:04:14.386Z,11.43
2019-06-08T09:06:48.166Z,11.00
2019-06-08T09:09:21.696Z,11.50
2019-06-08T09:11:54.396Z,12.13
2019-06-08T09:14:27.951Z,13.07
2019-06-08T09:17:01.691Z,13.97
2019-06-08T09:19:32.348Z,13.50
2019-06-08T09:22:04.546Z,13.80
2019-06-08T09:24:38.776Z,13.73
2019-06-08T09:27:09.606Z,13.30
2019-06-08T09:29:42.490Z,12.87
2019-06-08T09:32:14.703Z,12.87
2019-06-08T09:34:48.354Z,13.50
2019-06-08T09:37:19.206Z,12.73
2019-06-08T09:39:50.962Z,12.30
2019-06-08T09:42:22.636Z,11.60
2019-06-08T09:44:55.506Z,12.53
2019-06-08T09:47:28.063Z,12.57
2019-06-08T09:50:02.501Z,10.37
2019-06-08T09:52:33.840Z,9.37
2019-06-08T09:55:06.926Z,9.93
2019-06-08T09:57:39.370Z,10.50
2019-06-08T10:00:17.898Z,9.97
2019-06-08T10:02:47.756Z,9.70
2019-06-08T10:05:19.603Z,11.40
2019-06-08T10:07:51.254Z,11.53
2019-06-08T10:12:54.515Z,10.23
2019-06-08T10:15:27.732Z,10.63
2019-06-08T10:18:01.024Z,12.63
2019-06-08T10:20:34.242Z,9.10
2019-06-08T10:23:24.207Z,9.43
2019-06-08T10:25:39.262Z,9.83
2019-06-08T10:28:15.911Z,9.60
2019-06-08T10:30:45.335Z,9.70
2019-06-08T10:33:18.493Z,9.80
2019-06-08T10:35:50.247Z,9.77
2019-06-08T10:38:22.058Z,10.10
2019-06-08T10:41:11.944Z,8.90
2019-06-08T10:43:38.521Z,9.37
2019-06-08T10:46:16.156Z,9.27
2019-06-08T10:48:43.399Z,9.70
2019-06-08T10:51:15.492Z,11.47
2019-06-08T10:53:52.098Z,10.83
2019-06-08T10:56:20.646Z,10.77
2019-06-08T10:58:52.482Z,9.27
2019-06-08T11:01:24.122Z,8.60
2019-06-08T11:03:58.052Z,9.03
2019-06-08T11:06:29.359Z,8.77
2019-06-08T11:09:04.275Z,9.47
2019-06-08T11:11:34.569Z,9.20
2019-06-08T11:14:10.264Z,8.80
2019-06-08T11:16:39.494Z,9.20
2019-06-08T11:19:13.953Z,8.67
2019-06-08T11:21:48.102Z,9.00
2019-06-08T11:24:24.948Z,8.83
2019-06-08T11:26:52.811Z,8.27
2019-06-08T11:29:24.515Z,8.50
2019-06-08T11:31:58.629Z,8.70
2019-06-08T11:34:29.566Z,9.10
2019-06-08T11:37:01.970Z,9.23
2019-06-08T11:39:35.080Z,9.83
2019-06-08T11:42:09.199Z,8.83
2019-06-08T11:44:40.298Z,9.00
2019-06-08T11:47:13.442Z,8.50
2019-06-08T11:49:47.956Z,9.23
2019-06-08T11:52:19.147Z,9.63
2019-06-08T11:54:50.309Z,9.50
2019-06-08T11:57:23.307Z,9.50
2019-06-08T11:59:58.358Z,9.90
2019-06-08T12:02:28.806Z,10.00
2019-06-08T12:05:01.682Z,9.77
2019-06-08T12:07:33.446Z,10.93
2019-06-08T12:10:06.390Z,10.40
2019-06-08T12:12:38.479Z,10.10
2019-06-08T12:15:11.954Z,10.10
2019-06-08T12:17:44.175Z,10.13
2019-06-08T12:20:24.340Z,10.67
2019-06-08T12:22:58.661Z,9.27
2019-06-08T12:25:37.683Z,8.03
2019-06-08T12:28:10.589Z,6.80
2019-06-08T12:30:42.799Z,6.53
2019-06-08T12:33:19.884Z,6.40
2019-06-08T12:35:50.988Z,5.57
2019-06-08T12:38:21.888Z,5.73
2019-06-08T12:40:53.459Z,5.97
2019-06-08T12:43:34.304Z,6.53
2019-06-08T12:46:05.078Z,6.30
2019-06-08T12:48:38.490Z,5.30
2019-06-08T12:51:12.078Z,4.80
2019-06-08T12:53:42.558Z,5.53
2019-06-08T12:56:14.739Z,6.70
2019-06-08T12:58:47.622Z,6.87
2019-06-08T13:01:18.920Z,7.03
2019-06-08T13:03:50.802Z,7.30
2019-06-08T13:06:22.586Z,6.10
2019-06-08T13:08:54.659Z,5.40
2019-06-08T13:11:25.467Z,4.60
2019-06-08T13:13:56.322Z,4.30
2019-06-08T13:16:28.380Z,3.97
2019-06-08T13:19:00.202Z,3.90
2019-06-08T13:21:35.029Z,3.47
2019-06-08T13:24:05.144Z,3.50
2019-06-08T13:26:35.939Z,3.60
2019-06-08T13:29:09.193Z,3.60
2019-06-08T13:31:39.382Z,3.70
2019-06-08T13:34:11.069Z,3.83
2019-06-08T13:36:43.595Z,3.67
2019-06-08T13:39:19.565Z,3.20
2019-06-08T13:41:59.878Z,2.93
2019-06-08T13:44:37.683Z,2.87
2019-06-08T13:47:12.235Z,3.10
2019-06-08T13:49:42.016Z,2.77
2019-06-08T13:52:13.786Z,2.70
2019-06-08T13:54:48.892Z,2.87
2019-06-08T14:02:34.576Z,2.80
2019-06-08T14:05:08.160Z,2.40
2019-06-08T14:07:39.682Z,2.60
2019-06-08T14:10:12.776Z,2.77
2019-06-08T14:12:44.225Z,3.10
2019-06-08T14:15:15.596Z,2.50
2019-06-08T14:17:48.167Z,4.57
2019-06-08T14:20:24.206Z,2.20
2019-06-08T14:22:55.962Z,2.93
2019-06-08T14:25:28.883Z,2.40
2019-06-08T14:28:00.340Z,2.10
2019-06-08T14:30:33.273Z,5.70
2019-06-08T14:33:08.223Z,2.20
2019-06-08T14:35:42.926Z,2.50
2019-06-08T14:38:25.537Z,3.80
2019-06-08T14:40:55.727Z,3.70
2019-06-08T14:43:29.979Z,2.90
2019-06-08T14:46:03.193Z,2.97
2019-06-08T14:54:34.676Z,2.80
2019-06-08T14:57:02.336Z,3.50
2019-06-08T14:59:33.117Z,3.43
2019-06-08T15:02:04.554Z,2.80
2019-06-08T15:04:37.542Z,2.13
2019-06-08T15:07:09.585Z,2.50
2019-06-08T15:09:41.476Z,2.90
2019-06-08T15:12:12.172Z,2.67
2019-06-08T15:14:42.934Z,2.83
2019-06-08T15:17:13.654Z,2.73
2019-06-08T15:19:47.543Z,2.33
2019-06-08T15:22:20.900Z,3.00
2019-06-08T15:27:25.090Z,2.20
2019-06-08T15:29:58.647Z,2.57
2019-06-08T15:32:35.010Z,2.40
2019-06-08T15:35:04.900Z,2.90
2019-06-08T15:37:38.087Z,3.30
2019-06-08T15:40:09.452Z,3.00
2019-06-08T15:42:41.038Z,2.37
2019-06-08T15:45:18.405Z,6.17
2019-06-08T15:48:13.099Z,4.20
2019-06-08T15:50:46.580Z,3.37
2019-06-08T15:56:43.287Z,3.43
2019-06-08T15:59:18.257Z,2.77
2019-06-08T16:01:49.042Z,3.47
2019-06-08T16:04:19.744Z,3.80
2019-06-08T16:06:50.596Z,4.07
2019-06-08T16:09:21.322Z,4.93
2019-06-08T16:11:52.116Z,5.43
2019-06-08T16:14:22.867Z,4.27
2019-06-08T16:16:53.658Z,3.23
2019-06-08T16:19:25.365Z,6.00
2019-06-08T16:21:56.249Z,5.20
2019-06-08T16:24:27.762Z,3.20
2019-06-08T16:26:58.677Z,3.53
2019-06-08T16:29:29.388Z,3.50
2019-06-08T16:32:00.754Z,2.13
2019-06-08T16:34:31.469Z,2.47
2019-06-08T16:37:02.298Z,2.40
2019-06-08T16:39:33.136Z,2.90
2019-06-08T16:42:03.934Z,2.23
2019-06-08T16:44:36.286Z,1.80
2019-06-08T16:47:07.348Z,2.60
2019-06-08T16:49:38.103Z,1.83
2019-06-08T16:52:08.859Z,1.87
2019-06-08T16:54:39.672Z,1.90
2019-06-08T16:57:11.211Z,1.83
2019-06-08T16:59:42.173Z,2.30
2019-06-08T17:02:16.579Z,1.90
2019-06-08T17:04:45.438Z,2.60
2019-06-08T17:07:16.247Z,2.53
2019-06-08T17:09:47.017Z,2.40
2019-06-08T17:12:17.790Z,1.90
2019-06-08T17:14:48.536Z,2.30
2019-06-08T17:17:19.598Z,2.30
2019-06-08T17:19:50.651Z,2.10
2019-06-08T17:22:21.584Z,2.57
2019-06-08T17:24:52.697Z,1.83
2019-06-08T17:27:27.006Z,3.20
2019-06-08T17:29:55.992Z,13.30
2019-06-08T17:32:26.868Z,4.80
2019-06-08T17:34:57.893Z,18.43
2019-06-08T17:37:28.698Z,12.53
2019-06-08T17:39:59.447Z,3.33
2019-06-08T17:42:30.295Z,2.40
2019-06-08T17:45:00.994Z,4.50
2019-06-08T17:47:32.166Z,2.20
2019-06-08T17:50:03.142Z,38.33
2019-06-08T17:52:34.655Z,3.47
2019-06-08T17:55:13.182Z,5.10
2019-06-08T17:57:52.819Z,8.40
2019-06-08T18:00:43.735Z,7.23
2019-06-08T18:03:41.006Z,3.70
2019-06-08T18:06:13.570Z,3.10
2019-06-08T18:09:01.463Z,4.00
2019-06-08T18:11:38.443Z,3.00
2019-06-08T18:14:08.728Z,3.57
2019-06-08T18:16:42.111Z,2.90
2019-06-08T18:19:28.454Z,2.50
2019-06-08T18:22:04.057Z,3.10
2019-06-08T18:24:32.243Z,2.60
2019-06-08T18:27:03.778Z,3.10
2019-06-08T18:29:35.064Z,2.70
2019-06-08T18:32:11.932Z,3.13
2019-06-08T18:34:43.349Z,2.80
2019-06-08T18:37:14.333Z,2.80
2019-06-08T18:39:45.975Z,2.60
2019-06-08T18:42:18.008Z,2.30
2019-06-08T18:44:48.964Z,2.30
2019-06-08T18:47:19.750Z,14.33
2019-06-08T18:49:50.588Z,15.20
2019-06-08T18:52:21.360Z,20.87
2019-06-08T18:54:52.816Z,7.17
2019-06-08T18:57:23.623Z,3.83
2019-06-08T18:59:54.350Z,3.83
2019-06-08T19:02:25.927Z,7.03
2019-06-08T19:04:57.711Z,6.17
2019-06-08T19:07:28.642Z,4.03
2019-06-08T19:10:01.245Z,8.83
2019-06-08T19:12:31.987Z,9.90
2019-06-08T19:15:03.079Z,7.67
2019-06-08T19:17:33.825Z,13.67
2019-06-08T19:20:04.930Z,7.50
2019-06-08T19:22:38.446Z,23.47
2019-06-08T19:25:08.259Z,14.17
2019-06-08T19:27:45.114Z,6.67
2019-06-08T19:30:11.636Z,9.07
2019-06-08T19:32:48.300Z,6.23
2019-06-08T19:35:18.392Z,7.77
2019-06-08T19:37:53.700Z,6.27
2019-06-08T19:40:27.037Z,5.80
2019-06-08T19:43:01.287Z,4.23
2019-06-08T19:45:30.099Z,4.60
2019-06-08T19:48:00.860Z,5.07
2019-06-08T19:50:38.325Z,4.37
2019-06-08T19:59:11.345Z,4.70
2019-06-08T20:01:59.829Z,4.17
2019-06-08T20:04:38.466Z,4.60
2019-06-08T20:12:38.461Z,4.43
2019-06-08T20:15:08.807Z,5.43
2019-06-08T20:17:52.570Z,4.77
2019-06-08T20:20:23.749Z,5.77
2019-06-08T20:22:58.523Z,6.27
2019-06-08T20:25:40.988Z,7.00
2019-06-08T20:28:12.162Z,5.83
2019-06-08T20:30:44.299Z,5.80
2019-06-08T20:33:15.449Z,7.97
2019-06-08T20:35:48.548Z,7.20
2019-06-08T20:38:31.513Z,6.77
2019-06-08T20:40:52.277Z,6.93
2019-06-08T20:43:23.413Z,7.10
2019-06-08T20:45:54.149Z,7.27
2019-06-08T20:48:27.357Z,7.10
2019-06-08T20:50:57.464Z,7.00
2019-06-08T20:53:28.349Z,7.67
2019-06-08T20:55:59.235Z,7.83
2019-06-08T20:58:30.092Z,8.37
2019-06-08T21:01:00.904Z,8.70
2019-06-08T21:03:32.467Z,8.97
2019-06-08T21:06:04.267Z,8.20
2019-06-08T21:08:37.271Z,8.03
2019-06-08T21:11:09.222Z,7.93
2019-06-08T21:13:40.328Z,8.20
2019-06-08T21:16:11.181Z,8.73
2019-06-08T21:18:42.048Z,7.97
2019-06-08T21:21:12.855Z,8.17
2019-06-08T21:23:44.840Z,8.00
2019-06-08T21:26:17.895Z,7.70
2019-06-08T21:28:51.273Z,8.50
2019-06-08T21:31:20.964Z,7.47
2019-06-08T21:33:52.656Z,8.93
2019-06-08T21:36:24.268Z,9.83
2019-06-08T21:38:59.876Z,9.30
2019-06-08T21:41:28.011Z,9.93
2019-06-08T21:44:01.885Z,9.27
2019-06-08T21:46:31.308Z,9.40
2019-06-08T21:49:02.169Z,10.27
2019-06-08T21:51:32.957Z,10.63
2019-06-08T21:54:03.717Z,10.40
2019-06-08T21:56:36.926Z,12.10
2019-06-08T21:59:07.890Z,10.50
2019-06-08T22:01:40.167Z,10.37
2019-06-08T22:04:11.182Z,11.27
2019-06-08T22:06:41.932Z,10.77
2019-06-08T22:09:12.839Z,14.83
2019-06-08T22:11:43.685Z,13.93
2019-06-08T22:14:14.492Z,13.27
2019-06-08T22:16:47.400Z,13.37
2019-06-08T22:19:18.487Z,13.40
2019-06-08T22:21:49.406Z,13.70
2019-06-08T22:24:20.209Z,14.10
2019-06-08T22:26:51.052Z,13.63
2019-06-08T22:29:23.163Z,13.53
2019-06-08T22:31:53.917Z,12.93
2019-06-08T22:34:24.697Z,10.60
2019-06-08T22:36:58.211Z,7.60
2019-06-08T22:39:28.201Z,7.43
2019-06-08T22:42:01.186Z,9.30
2019-06-08T22:44:31.506Z,8.53
2019-06-08T22:47:03.602Z,8.80
2019-06-08T22:49:34.876Z,8.73
2019-06-08T22:52:08.215Z,9.87
2019-06-08T22:54:38.515Z,9.33
2019-06-08T22:57:09.326Z,8.77
2019-06-08T22:59:40.121Z,11.30
2019-06-08T23:02:10.876Z,10.63
2019-06-08T23:04:41.664Z,11.40
2019-06-08T23:07:25.648Z,12.73
2019-06-08T23:09:44.847Z,12.33
2019-06-08T23:12:18.055Z,10.30
2019-06-08T23:14:48.128Z,10.40
2019-06-08T23:17:18.929Z,10.80
2019-06-08T23:19:49.737Z,8.70
2019-06-08T23:22:20.471Z,8.80
2019-06-08T23:24:51.298Z,8.43
2019-06-08T23:27:22.070Z,7.93
2019-06-08T23:29:54.101Z,7.47
2019-06-08T23:32:27.508Z,7.57
2019-06-08T23:34:58.652Z,7.13
2019-06-08T23:37:29.575Z,7.70
2019-06-08T23:40:02.143Z,8.50
2019-06-08T23:42:33.661Z,8.43
2019-06-08T23:45:08.613Z,8.13
2019-06-08T23:47:38.530Z,9.83
2019-06-08T23:50:11.620Z,9.50
2019-06-08T23:52:42.689Z,8.83
2019-06-08T23:55:13.566Z,7.30
2019-06-08T23:57:44.288Z,7.07
